Time;durP1;ratioP1;P1;durP2;ratioP2;P2;SDS_P1;SDS_P2;PMS_P1;PMS_P2;Temp;Humidity;BMP_temperature;BMP_pressure;BME280_temperature;BME280_humidity;BME280_pressure;Samples;Min_cycle;Max_cycle;Signal;HPM_P1;HPM_P2
2024/04/03 00:01:09;;;;;;;12.70;8.73;;;9.30;99.90;;;;;;5015177;28;20522;-65
2024/04/03 00:03:35;;;;;;;10.03;8.80;;;9.30;99.90;;;;;;5017986;28;20495;-65
2024/04/03 00:06:02;;;;;;;13.20;8.53;;;9.30;99.90;;;;;;5021300;28;20479;-64
2024/04/03 00:08:30;;;;;;;14.20;8.80;;;9.30;99.90;;;;;;5017194;28;20468;-65
2024/04/03 00:10:57;;;;;;;11.27;8.53;;;9.20;99.90;;;;;;5013978;28;20480;-64
2024/04/03 00:13:23;;;;;;;10.97;8.23;;;9.20;99.90;;;;;;5003893;28;20499;-65
2024/04/03 00:15:50;;;;;;;12.73;9.00;;;9.20;99.90;;;;;;5001982;28;20996;-65
2024/04/03 00:18:16;;;;;;;9.90;8.20;;;9.10;99.90;;;;;;5006638;28;20537;-65
2024/04/03 00:20:43;;;;;;;13.40;8.10;;;9.10;99.90;;;;;;5007037;28;20494;-65
2024/04/03 00:23:09;;;;;;;10.63;8.63;;;9.10;99.90;;;;;;5015668;28;20484;-64
2024/04/03 00:25:38;;;;;;;9.90;7.40;;;9.10;99.90;;;;;;5020946;28;20515;-65
2024/04/03 00:28:05;;;;;;;9.97;7.63;;;9.10;99.90;;;;;;5014041;28;24408;-65
2024/04/03 00:30:37;;;;;;;10.50;7.57;;;9.00;99.90;;;;;;5016712;28;20952;-65
2024/04/03 00:33:03;;;;;;;11.40;8.00;;;9.00;99.90;;;;;;5018124;28;20525;-65
2024/04/03 00:35:30;;;;;;;7.90;6.30;;;9.00;99.90;;;;;;5018786;28;20480;-65
2024/04/03 00:37:56;;;;;;;7.70;6.60;;;8.90;99.90;;;;;;5039231;28;20463;-65
2024/04/03 00:40:23;;;;;;;8.30;6.57;;;8.90;99.90;;;;;;5019972;28;20843;-65
2024/04/03 00:42:51;;;;;;;7.97;6.93;;;8.80;99.90;;;;;;5021264;28;20475;-65
2024/04/03 00:45:18;;;;;;;7.80;7.07;;;8.80;99.90;;;;;;5014849;28;20472;-65
2024/04/03 00:47:44;;;;;;;6.67;6.00;;;8.80;99.90;;;;;;5021750;28;20501;-65
2024/04/03 00:50:12;;;;;;;7.20;6.20;;;8.80;99.90;;;;;;5014694;28;20500;-65
2024/04/03 00:52:38;;;;;;;7.73;6.50;;;8.80;99.90;;;;;;5023344;28;20476;-65
2024/04/03 00:55:05;;;;;;;8.07;6.43;;;8.70;99.90;;;;;;5018406;28;21062;-65
2024/04/03 00:57:32;;;;;;;9.07;6.73;;;8.70;99.90;;;;;;5014103;28;20472;-65
2024/04/03 01:00:00;;;;;;;10.07;6.73;;;8.70;99.90;;;;;;5018354;28;20494;-65
2024/04/03 01:02:26;;;;;;;8.33;6.37;;;8.60;99.90;;;;;;5020996;28;20477;-65
2024/04/03 01:04:53;;;;;;;9.23;6.60;;;8.60;99.90;;;;;;5020492;28;20488;-65
2024/04/03 01:07:19;;;;;;;8.83;6.60;;;8.60;99.90;;;;;;5022196;28;20851;-65
2024/04/03 01:09:47;;;;;;;7.27;5.70;;;8.60;99.90;;;;;;5022699;28;20517;-65
2024/04/03 01:12:13;;;;;;;8.00;6.00;;;8.60;99.90;;;;;;5020403;28;20471;-64
2024/04/03 01:14:40;;;;;;;7.50;6.47;;;8.50;99.90;;;;;;5017520;28;20486;-65
2024/04/03 01:17:07;;;;;;;7.50;6.17;;;8.50;99.90;;;;;;5015885;28;20468;-63
2024/04/03 01:19:34;;;;;;;6.73;6.00;;;8.50;99.90;;;;;;5018108;28;20544;-63
2024/04/03 01:22:00;;;;;;;8.00;6.40;;;8.50;99.90;;;;;;5022263;28;20848;-63
2024/04/03 01:24:30;;;;;;;9.93;6.97;;;8.50;99.90;;;;;;5023408;28;20479;-63
2024/04/03 01:26:56;;;;;;;7.53;6.60;;;8.50;99.90;;;;;;5025554;28;20471;-63
2024/04/03 01:29:23;;;;;;;7.33;6.43;;;8.50;99.90;;;;;;5016288;28;20470;-63
2024/04/03 01:31:49;;;;;;;6.93;6.20;;;8.40;99.90;;;;;;5024382;28;20876;-63
2024/04/03 01:34:16;;;;;;;7.40;6.70;;;8.40;99.90;;;;;;5018311;28;20515;-63
2024/04/03 01:36:42;;;;;;;8.97;7.67;;;8.40;99.90;;;;;;5021623;28;20968;-63
2024/04/03 01:39:09;;;;;;;8.10;6.40;;;8.40;99.90;;;;;;5023968;28;20474;-64
2024/04/03 01:41:37;;;;;;;7.53;6.43;;;8.30;99.90;;;;;;5018400;28;20540;-63
2024/04/03 01:44:04;;;;;;;7.90;6.87;;;8.30;99.90;;;;;;5019573;28;20483;-63
2024/04/03 01:46:30;;;;;;;7.97;7.17;;;8.30;99.90;;;;;;5022446;28;20536;-64
2024/04/03 01:48:57;;;;;;;7.63;6.33;;;8.30;99.90;;;;;;5019556;28;20486;-64
2024/04/03 01:51:23;;;;;;;10.10;7.30;;;8.30;99.90;;;;;;5023182;28;20491;-63
2024/04/03 01:53:50;;;;;;;8.40;6.83;;;8.30;99.90;;;;;;5023193;28;20502;-64
2024/04/03 01:56:16;;;;;;;8.80;7.00;;;8.30;99.90;;;;;;5013900;28;20462;-64
2024/04/03 01:58:44;;;;;;;7.17;6.47;;;8.30;99.90;;;;;;5020610;28;20830;-64
2024/04/03 02:01:10;;;;;;;7.60;6.70;;;8.30;99.90;;;;;;5017058;28;20486;-63
2024/04/03 02:03:38;;;;;;;8.33;7.10;;;8.30;99.90;;;;;;5021979;28;21012;-64
2024/04/03 02:06:04;;;;;;;11.47;8.30;;;8.30;99.90;;;;;;5023472;28;20471;-63
2024/04/03 02:08:31;;;;;;;10.80;7.67;;;8.30;99.90;;;;;;5021161;28;20483;-63
2024/04/03 02:10:57;;;;;;;8.53;7.63;;;8.30;99.90;;;;;;5021024;28;21091;-63
2024/04/03 02:13:24;;;;;;;8.13;7.17;;;8.20;99.90;;;;;;5019585;28;20495;-62
2024/04/03 02:15:55;;;;;;;7.83;5.77;;;8.20;99.90;;;;;;5013489;28;20498;-62
2024/04/03 02:18:22;;;;;;;5.47;4.97;;;8.20;99.90;;;;;;5019968;28;20463;-64
2024/04/03 02:20:48;;;;;;;5.93;5.33;;;8.20;99.90;;;;;;5019090;28;20556;-64
2024/04/03 02:23:15;;;;;;;5.00;4.33;;;8.20;99.90;;;;;;5019732;28;20492;-64
2024/04/03 02:25:41;;;;;;;4.63;4.10;;;8.10;99.90;;;;;;5021168;28;20455;-64
2024/04/03 02:28:08;;;;;;;4.60;4.00;;;8.10;99.90;;;;;;5023777;28;20467;-64
2024/04/03 02:30:34;;;;;;;6.20;4.67;;;8.10;99.90;;;;;;5019330;28;20474;-64
2024/04/03 02:33:04;;;;;;;4.90;4.40;;;8.00;99.90;;;;;;5020992;28;20478;-64
2024/04/03 02:35:30;;;;;;;4.90;4.30;;;8.00;99.90;;;;;;5013915;28;20941;-63
2024/04/03 02:37:57;;;;;;;4.90;4.47;;;8.00;99.90;;;;;;5021077;28;20848;-62
2024/04/03 02:40:23;;;;;;;4.90;4.40;;;8.00;99.90;;;;;;5020718;28;21001;-63
2024/04/03 02:42:50;;;;;;;4.20;3.80;;;7.90;99.90;;;;;;5021113;28;20479;-63
2024/04/03 02:45:16;;;;;;;5.93;4.10;;;7.90;99.90;;;;;;5020116;28;20471;-63
2024/04/03 02:47:43;;;;;;;4.23;3.87;;;8.00;99.90;;;;;;5023223;28;20988;-63
2024/04/03 02:50:11;;;;;;;4.40;4.00;;;7.90;99.90;;;;;;5018137;28;20471;-63
2024/04/03 02:52:38;;;;;;;4.00;3.60;;;7.90;99.90;;;;;;5019238;28;20468;-64
2024/04/03 02:55:04;;;;;;;4.80;4.30;;;7.90;99.90;;;;;;5021484;28;20487;-64
2024/04/03 02:57:32;;;;;;;3.80;3.40;;;7.80;99.90;;;;;;5020391;28;21163;-64
2024/04/03 02:59:58;;;;;;;4.13;3.73;;;7.80;99.90;;;;;;5025065;28;20485;-63
2024/04/03 03:02:25;;;;;;;3.83;3.43;;;7.80;99.90;;;;;;5036223;28;20482;-64
2024/04/03 03:04:51;;;;;;;3.90;3.60;;;7.80;99.90;;;;;;5037740;28;20490;-63
2024/04/03 03:07:20;;;;;;;4.63;3.73;;;7.80;99.90;;;;;;5033722;28;20475;-63
2024/04/03 03:09:46;;;;;;;4.27;3.87;;;7.80;99.90;;;;;;5033983;28;20478;-64
2024/04/03 03:12:13;;;;;;;4.10;3.73;;;7.70;99.90;;;;;;4996822;28;1096100;-64
2024/04/03 03:14:39;;;;;;;4.93;4.43;;;7.70;99.90;;;;;;5043638;28;20712;-63
2024/04/03 03:17:06;;;;;;;4.20;3.60;;;7.70;99.90;;;;;;5040402;28;20525;-63
2024/04/03 03:19:32;;;;;;;4.90;4.07;;;7.70;99.90;;;;;;5037602;28;20463;-64
2024/04/03 03:21:59;;;;;;;4.63;4.23;;;7.60;99.90;;;;;;5018005;28;20483;-63
2024/04/03 03:24:26;;;;;;;4.73;4.33;;;7.60;99.90;;;;;;5016823;28;20992;-64
2024/04/03 03:26:53;;;;;;;5.00;4.60;;;7.60;99.90;;;;;;5017047;28;20995;-63
2024/04/03 03:29:19;;;;;;;4.90;4.40;;;7.60;99.90;;;;;;5018267;28;20471;-63
2024/04/03 03:31:46;;;;;;;5.03;4.57;;;7.60;99.90;;;;;;5017652;28;20550;-64
2024/04/03 03:34:12;;;;;;;5.20;4.60;;;7.50;99.90;;;;;;5022784;28;20937;-64
2024/04/03 03:36:39;;;;;;;4.90;4.40;;;7.50;99.90;;;;;;5023066;28;21022;-64
2024/04/03 03:39:06;;;;;;;4.77;4.33;;;7.40;99.90;;;;;;5018123;28;20487;-64
2024/04/03 03:41:34;;;;;;;4.70;4.30;;;7.40;99.90;;;;;;5014823;28;20498;-64
2024/04/03 03:44:01;;;;;;;4.30;3.90;;;7.40;99.90;;;;;;5019620;28;20496;-64
2024/04/03 03:46:27;;;;;;;5.40;4.10;;;7.40;99.90;;;;;;5016242;28;20482;-64
2024/04/03 03:54:23;;;;;;;4.43;4.03;;;7.30;99.90;;;;;;5021308;28;20544;-63
2024/04/03 03:56:51;;;;;;;4.23;3.80;;;7.30;99.90;;;;;;5028296;28;20478;-63
2024/04/03 03:59:18;;;;;;;4.27;3.90;;;7.30;99.90;;;;;;5022089;28;20476;-65
2024/04/03 04:01:47;;;;;;;4.77;4.37;;;7.20;99.90;;;;;;5013621;28;20483;-65
2024/04/03 04:04:14;;;;;;;4.00;3.60;;;7.20;99.90;;;;;;5018634;28;20494;-65
2024/04/03 04:06:40;;;;;;;4.50;4.10;;;7.20;99.90;;;;;;5020827;28;20471;-65
2024/04/03 04:09:07;;;;;;;3.73;3.37;;;7.20;99.90;;;;;;5017262;28;20466;-64
2024/04/03 04:11:34;;;;;;;3.90;3.50;;;7.20;99.90;;;;;;5018908;28;20506;-64
2024/04/03 04:14:02;;;;;;;4.60;4.20;;;7.20;99.90;;;;;;5022946;28;20858;-64
2024/04/03 04:16:29;;;;;;;4.30;3.90;;;7.10;99.90;;;;;;5022287;28;20484;-65
2024/04/03 04:18:55;;;;;;;4.40;4.00;;;7.10;99.90;;;;;;5023270;28;20842;-65
2024/04/03 04:21:22;;;;;;;3.80;3.47;;;7.10;99.90;;;;;;5033416;28;20852;-65
2024/04/03 04:23:49;;;;;;;3.60;3.30;;;7.00;99.90;;;;;;5042628;28;20487;-64
2024/04/03 04:26:16;;;;;;;3.50;3.10;;;7.00;99.90;;;;;;5029546;28;20971;-63
2024/04/03 04:28:42;;;;;;;3.33;3.03;;;7.00;99.90;;;;;;5039302;28;20953;-65
2024/04/03 04:31:10;;;;;;;3.53;3.23;;;7.00;99.90;;;;;;5033290;28;20544;-64
2024/04/03 04:33:38;;;;;;;3.00;2.80;;;7.00;99.90;;;;;;5030474;28;20850;-65
2024/04/03 04:36:05;;;;;;;3.53;3.23;;;6.90;99.90;;;;;;5038128;28;20517;-64
2024/04/03 04:38:32;;;;;;;3.50;3.07;;;6.90;99.90;;;;;;5034774;28;20960;-65
2024/04/03 04:40:59;;;;;;;3.30;3.00;;;6.80;99.90;;;;;;5036423;28;20547;-64
2024/04/03 04:43:28;;;;;;;3.73;3.03;;;6.80;99.90;;;;;;5031139;28;20501;-64
2024/04/03 04:45:55;;;;;;;3.67;3.37;;;6.70;99.90;;;;;;5035189;28;20463;-64
2024/04/03 04:48:24;;;;;;;3.73;3.30;;;6.70;99.90;;;;;;5037876;28;20467;-65
2024/04/03 04:50:52;;;;;;;3.83;3.50;;;6.70;99.90;;;;;;5026086;28;20479;-64
2024/04/03 04:53:19;;;;;;;3.03;2.77;;;6.70;99.90;;;;;;5028503;28;20710;-65
2024/04/03 04:55:55;;;;;;;3.77;3.47;;;6.70;99.90;;;;;;5041062;28;21048;-65
2024/04/03 04:58:23;;;;;;;3.30;3.00;;;6.60;99.90;;;;;;5040038;28;20482;-65
2024/04/03 05:00:50;;;;;;;4.10;3.70;;;6.60;99.90;;;;;;5028391;28;20491;-64
2024/04/03 05:03:17;;;;;;;3.63;3.30;;;6.60;99.90;;;;;;5010072;28;21003;-65
2024/04/03 05:05:44;;;;;;;4.30;3.90;;;6.60;99.90;;;;;;5018813;28;20474;-65
2024/04/03 05:08:11;;;;;;;4.50;3.60;;;6.60;99.90;;;;;;5016230;28;20467;-64
2024/04/03 05:10:39;;;;;;;3.57;3.23;;;6.60;99.90;;;;;;5011594;28;21009;-68
2024/04/03 05:13:05;;;;;;;3.90;3.50;;;6.60;99.90;;;;;;5017546;28;20545;-65
2024/04/03 05:15:32;;;;;;;4.00;3.60;;;6.60;99.90;;;;;;5015188;28;21008;-65
2024/04/03 05:17:59;;;;;;;4.43;4.00;;;6.60;99.90;;;;;;5020895;28;20803;-65
2024/04/03 05:20:27;;;;;;;4.50;3.73;;;6.50;99.90;;;;;;4996434;28;21263;-65
2024/04/03 05:22:56;;;;;;;4.80;4.23;;;6.40;99.90;;;;;;5013987;28;20474;-65
2024/04/03 05:25:23;;;;;;;5.30;4.20;;;6.50;99.90;;;;;;5011467;28;20467;-65
2024/04/03 05:27:49;;;;;;;6.23;4.47;;;6.50;99.90;;;;;;5008782;28;20562;-64
2024/04/03 05:30:16;;;;;;;4.23;3.30;;;6.40;99.90;;;;;;5008855;28;20483;-63
2024/04/03 05:32:42;;;;;;;4.90;4.17;;;6.40;99.90;;;;;;5013303;28;20486;-65
2024/04/03 05:35:09;;;;;;;4.10;3.70;;;6.40;99.90;;;;;;5007781;28;20503;-65
2024/04/03 05:37:35;;;;;;;3.77;3.37;;;6.40;99.90;;;;;;5012254;28;20988;-65
2024/04/03 05:40:05;;;;;;;4.47;4.03;;;6.40;99.90;;;;;;5013446;28;20561;-65
2024/04/03 05:42:31;;;;;;;6.03;3.67;;;6.40;99.90;;;;;;5014138;28;20480;-65
2024/04/03 05:44:58;;;;;;;4.77;4.20;;;6.40;99.90;;;;;;5006584;28;20483;-65
2024/04/03 05:47:24;;;;;;;4.13;3.73;;;6.40;99.90;;;;;;5011811;28;20625;-66
2024/04/03 05:49:54;;;;;;;4.30;3.87;;;6.40;99.90;;;;;;5008231;28;20491;-65
2024/04/03 05:52:21;;;;;;;4.00;3.60;;;6.40;99.90;;;;;;5008818;28;20848;-66
2024/04/03 05:54:49;;;;;;;4.60;3.87;;;6.40;99.90;;;;;;5012502;28;20562;-65
2024/04/03 05:57:17;;;;;;;4.87;3.93;;;6.40;99.90;;;;;;5018853;28;21039;-64
2024/04/03 05:59:45;;;;;;;5.40;4.03;;;6.40;99.90;;;;;;5022023;28;20478;-64
2024/04/03 06:02:12;;;;;;;4.47;3.60;;;6.30;99.90;;;;;;5015479;28;20467;-65
2024/04/03 06:04:39;;;;;;;4.17;3.77;;;6.40;99.90;;;;;;5016551;28;20487;-65
2024/04/03 06:07:06;;;;;;;3.70;3.40;;;6.40;99.90;;;;;;5025169;28;20984;-65
2024/04/03 06:09:33;;;;;;;4.77;4.33;;;6.40;99.90;;;;;;5025465;28;20456;-65
2024/04/03 06:11:59;;;;;;;4.50;3.60;;;6.40;99.90;;;;;;5023610;28;20541;-65
2024/04/03 06:14:27;;;;;;;3.97;3.57;;;6.40;99.90;;;;;;5018277;28;20495;-65
2024/04/03 06:16:53;;;;;;;4.60;4.20;;;6.40;99.90;;;;;;5017027;28;20481;-65
2024/04/03 06:19:20;;;;;;;3.30;3.00;;;6.40;99.90;;;;;;5020353;28;20924;-66
2024/04/03 06:21:46;;;;;;;3.90;3.50;;;6.40;99.90;;;;;;5022938;28;20490;-66
2024/04/03 06:24:13;;;;;;;4.30;3.80;;;6.40;99.90;;;;;;5023138;28;20537;-66
2024/04/03 06:26:42;;;;;;;3.50;3.20;;;6.40;99.90;;;;;;5024004;28;20475;-66
2024/04/03 06:29:09;;;;;;;4.20;3.80;;;6.40;99.90;;;;;;5023703;28;20474;-66
2024/04/03 06:31:37;;;;;;;3.27;3.00;;;6.50;99.90;;;;;;5020184;28;20524;-67
2024/04/03 06:34:04;;;;;;;3.40;3.07;;;6.40;99.90;;;;;;5022992;28;21056;-66
2024/04/03 06:36:30;;;;;;;3.27;3.07;;;6.50;99.90;;;;;;5017633;28;20487;-65
2024/04/03 06:38:57;;;;;;;3.50;3.20;;;6.50;99.90;;;;;;5024292;28;20467;-66
2024/04/03 06:41:23;;;;;;;4.10;3.60;;;6.50;99.90;;;;;;5026235;28;20467;-66
2024/04/03 06:43:50;;;;;;;5.20;4.70;;;6.50;99.90;;;;;;5021746;28;20992;-66
2024/04/03 06:46:17;;;;;;;3.77;3.47;;;6.50;99.90;;;;;;5021317;28;20523;-66
2024/04/03 06:48:46;;;;;;;3.87;3.47;;;6.60;99.90;;;;;;5019391;28;20472;-66
2024/04/03 06:51:12;;;;;;;3.60;3.30;;;6.50;99.90;;;;;;5024054;28;20483;-66
2024/04/03 06:53:39;;;;;;;4.63;3.40;;;6.50;99.90;;;;;;5013835;28;20952;-66
2024/04/03 06:56:06;;;;;;;3.47;3.17;;;6.50;99.90;;;;;;5021276;28;20487;-66
2024/04/03 06:58:38;;;;;;;4.80;3.20;;;6.40;99.90;;;;;;5020831;28;20551;-66
2024/04/03 07:01:05;;;;;;;3.50;3.20;;;6.50;99.90;;;;;;5018144;28;20491;-66
2024/04/03 07:03:33;;;;;;;3.70;3.40;;;6.50;99.90;;;;;;5018840;28;20499;-64
2024/04/03 07:06:00;;;;;;;3.70;3.40;;;6.50;99.90;;;;;;5021498;28;20961;-64
2024/04/03 07:08:27;;;;;;;3.43;3.13;;;6.50;99.90;;;;;;5018054;28;20468;-66
2024/04/03 07:10:54;;;;;;;3.57;3.27;;;6.50;99.90;;;;;;5023970;28;20510;-64
2024/04/03 07:13:22;;;;;;;4.00;3.60;;;6.60;99.90;;;;;;5021393;28;20496;-64
2024/04/03 07:15:48;;;;;;;3.80;3.40;;;6.60;99.90;;;;;;5018777;28;21008;-66
2024/04/03 07:18:16;;;;;;;3.70;3.40;;;6.60;99.90;;;;;;5021399;28;20471;-63
2024/04/03 07:20:51;;;;;;;4.10;3.80;;;6.60;99.90;;;;;;5024601;28;20878;-66
2024/04/03 07:23:25;;;;;;;4.00;3.70;;;6.70;99.90;;;;;;5022175;28;20565;-66
2024/04/03 07:25:51;;;;;;;4.40;4.00;;;6.70;99.90;;;;;;5023253;28;20467;-66
2024/04/03 07:28:18;;;;;;;4.37;3.97;;;6.70;99.90;;;;;;5019416;28;20472;-66
2024/04/03 07:30:45;;;;;;;4.00;3.70;;;6.70;99.90;;;;;;5022274;28;20550;-64
2024/04/03 07:33:12;;;;;;;4.13;3.70;;;6.70;99.90;;;;;;5023841;28;20907;-66
2024/04/03 07:35:39;;;;;;;3.70;3.40;;;6.70;99.90;;;;;;5019448;28;20914;-66
2024/04/03 07:38:06;;;;;;;4.10;3.70;;;6.70;99.90;;;;;;5023197;28;20476;-66
2024/04/03 07:40:34;;;;;;;3.97;3.67;;;6.80;99.90;;;;;;5021743;28;20529;-63
2024/04/03 07:43:01;;;;;;;3.67;3.27;;;6.80;99.90;;;;;;5024462;28;20498;-66
2024/04/03 07:45:27;;;;;;;3.40;3.10;;;6.80;99.90;;;;;;5020397;28;20479;-64
2024/04/03 07:47:55;;;;;;;3.80;3.43;;;6.90;99.90;;;;;;5020054;28;20995;-66
2024/04/03 07:50:21;;;;;;;3.80;3.50;;;6.90;99.90;;;;;;5021523;28;21025;-64
2024/04/03 07:52:48;;;;;;;3.63;3.33;;;7.00;99.90;;;;;;5022994;28;20965;-64
2024/04/03 07:55:14;;;;;;;3.93;3.63;;;7.00;99.90;;;;;;5021775;28;20495;-64
2024/04/03 07:57:43;;;;;;;3.60;3.30;;;7.00;99.90;;;;;;5017996;28;20851;-66
2024/04/03 08:00:10;;;;;;;3.93;3.53;;;7.10;99.90;;;;;;5021054;28;20480;-65
2024/04/03 08:02:40;;;;;;;3.67;3.20;;;7.10;99.90;;;;;;5019290;28;20463;-66
2024/04/03 08:05:08;;;;;;;3.70;3.40;;;7.20;99.90;;;;;;5015240;28;20545;-65
2024/04/03 08:07:35;;;;;;;3.80;3.40;;;7.20;99.90;;;;;;5022977;28;20464;-66
2024/04/03 08:10:01;;;;;;;3.33;3.03;;;7.30;99.90;;;;;;5022958;28;20479;-65
2024/04/03 08:12:28;;;;;;;3.70;3.40;;;7.40;99.90;;;;;;5021075;28;20491;-65
2024/04/03 08:14:58;;;;;;;3.90;3.60;;;7.40;99.90;;;;;;5022609;28;20483;-68
2024/04/03 08:17:25;;;;;;;4.57;4.17;;;7.50;99.90;;;;;;5020218;28;20829;-65
2024/04/03 08:19:51;;;;;;;4.83;3.77;;;7.60;99.90;;;;;;5021695;28;20831;-65
2024/04/03 08:22:19;;;;;;;3.70;3.40;;;7.60;99.90;;;;;;5018049;28;20476;-64
2024/04/03 08:24:46;;;;;;;4.20;3.80;;;7.60;99.90;;;;;;5021814;28;20483;-65
2024/04/03 08:27:13;;;;;;;4.53;4.00;;;7.70;99.90;;;;;;5020088;28;20459;-65
2024/04/03 08:29:42;;;;;;;4.70;3.37;;;7.80;99.90;;;;;;5024016;28;20471;-65
2024/04/03 08:32:11;;;;;;;4.20;3.40;;;7.90;99.90;;;;;;5030106;28;20863;-65
2024/04/03 08:34:37;;;;;;;4.13;3.73;;;7.90;99.90;;;;;;5022755;28;20483;-66
2024/04/03 08:37:05;;;;;;;4.87;3.83;;;7.90;99.90;;;;;;5018281;28;20502;-66
2024/04/03 08:39:31;;;;;;;4.57;4.17;;;8.00;99.90;;;;;;5022340;28;21621;-65
2024/04/03 08:42:00;;;;;;;5.03;4.40;;;8.00;99.90;;;;;;5023487;28;20471;-65
2024/04/03 08:44:30;;;;;;;4.40;4.00;;;8.10;99.90;;;;;;5015561;28;20487;-65
2024/04/03 08:46:58;;;;;;;4.90;4.40;;;8.10;99.90;;;;;;5021496;28;20455;-65
2024/04/03 08:49:28;;;;;;;4.53;4.13;;;8.20;99.90;;;;;;5020449;28;20896;-65
2024/04/03 08:52:01;;;;;;;5.70;4.50;;;8.20;99.90;;;;;;5021851;28;20471;-65
2024/04/03 08:54:28;;;;;;;5.53;4.13;;;8.30;99.90;;;;;;5019843;28;20545;-65
2024/04/03 08:56:56;;;;;;;4.73;4.20;;;8.30;99.90;;;;;;5018542;28;20878;-65
2024/04/03 08:59:22;;;;;;;6.07;4.53;;;8.40;99.90;;;;;;5021348;28;20900;-65
2024/04/03 09:01:50;;;;;;;5.20;4.53;;;8.40;99.90;;;;;;5020792;28;20851;-65
2024/04/03 09:04:16;;;;;;;4.53;4.03;;;8.40;99.90;;;;;;5017663;28;20902;-65
2024/04/03 09:06:45;;;;;;;5.13;4.63;;;8.40;99.90;;;;;;5012396;28;20482;-64
2024/04/03 09:09:20;;;;;;;5.30;4.80;;;8.40;99.90;;;;;;5021556;28;20468;-64
2024/04/03 09:11:50;;;;;;;5.77;5.03;;;8.50;99.90;;;;;;5020644;28;20490;-64
2024/04/03 09:14:20;;;;;;;5.33;4.67;;;8.50;99.90;;;;;;5017585;28;20493;-64
2024/04/03 09:16:47;;;;;;;5.57;5.07;;;8.60;99.90;;;;;;5019934;28;20573;-65
2024/04/03 09:19:14;;;;;;;5.37;4.73;;;8.60;99.90;;;;;;5021923;28;20837;-65
2024/04/03 09:21:41;;;;;;;6.47;5.73;;;8.70;99.90;;;;;;5021828;28;20498;-64
2024/04/03 09:24:11;;;;;;;6.27;5.30;;;8.70;99.90;;;;;;5019454;28;20893;-64
2024/04/03 09:26:44;;;;;;;5.40;4.80;;;8.80;99.90;;;;;;5018284;28;20463;-64
2024/04/03 09:29:12;;;;;;;5.27;4.77;;;8.90;99.90;;;;;;5019058;28;20468;-65
2024/04/03 09:31:39;;;;;;;5.73;4.80;;;8.90;99.90;;;;;;5021841;28;21164;-67
2024/04/03 09:34:05;;;;;;;6.17;5.23;;;8.90;99.90;;;;;;5020517;28;20483;-66
2024/04/03 09:36:32;;;;;;;6.17;5.17;;;9.00;99.90;;;;;;5018278;28;20498;-66
2024/04/03 09:38:58;;;;;;;7.27;5.60;;;9.00;99.90;;;;;;5020308;28;20884;-64
2024/04/03 09:41:31;;;;;;;6.03;5.13;;;9.00;99.90;;;;;;5020117;28;21031;-65
2024/04/03 09:44:00;;;;;;;6.80;5.90;;;9.10;99.90;;;;;;5025782;28;20490;-65
2024/04/03 09:46:37;;;;;;;6.30;5.50;;;9.10;99.90;;;;;;5020121;28;21092;-66
2024/04/03 09:49:05;;;;;;;6.33;5.30;;;9.10;99.90;;;;;;5022300;28;20463;-65
2024/04/03 09:51:32;;;;;;;6.57;5.23;;;9.10;99.90;;;;;;5021840;28;20533;-65
2024/04/03 09:53:59;;;;;;;6.30;5.60;;;9.20;99.90;;;;;;5021854;28;20707;-65
2024/04/03 09:56:28;;;;;;;6.77;5.70;;;9.20;99.90;;;;;;5022642;28;20494;-66
2024/04/03 09:58:54;;;;;;;6.20;5.47;;;9.20;99.90;;;;;;5024372;28;20529;-65
2024/04/03 10:01:21;;;;;;;7.07;5.97;;;9.30;99.90;;;;;;5021832;28;20844;-65
2024/04/03 10:03:47;;;;;;;7.73;5.80;;;9.30;99.90;;;;;;5024193;28;20499;-65
2024/04/03 10:06:16;;;;;;;5.63;5.03;;;9.30;99.90;;;;;;5025259;28;20976;-65
2024/04/03 10:08:44;;;;;;;6.13;5.53;;;9.30;99.90;;;;;;5023499;28;20467;-67
2024/04/03 10:11:12;;;;;;;6.27;5.67;;;9.30;99.90;;;;;;5024564;28;20491;-66
2024/04/03 10:13:40;;;;;;;6.57;5.47;;;9.30;99.90;;;;;;5024898;28;20487;-66
2024/04/03 10:16:09;;;;;;;6.27;5.67;;;9.30;99.90;;;;;;5021181;28;20491;-66
2024/04/03 10:18:36;;;;;;;6.47;5.77;;;9.30;99.90;;;;;;5025171;28;20471;-65
2024/04/03 10:21:04;;;;;;;6.53;5.93;;;9.30;99.90;;;;;;5023153;28;21710;-66
2024/04/03 10:23:39;;;;;;;6.10;5.50;;;9.30;99.90;;;;;;5021734;28;20918;-66
2024/04/03 10:26:07;;;;;;;6.90;6.20;;;9.30;99.90;;;;;;5025319;28;20994;-66
2024/04/03 10:28:33;;;;;;;6.63;6.03;;;9.40;99.90;;;;;;5024896;28;20883;-66
2024/04/03 10:31:01;;;;;;;6.20;5.60;;;9.40;99.90;;;;;;5020524;28;20490;-66
2024/04/03 10:33:28;;;;;;;6.20;5.60;;;9.50;99.90;;;;;;5019128;28;20495;-66
2024/04/03 10:35:55;;;;;;;8.40;6.30;;;9.50;99.90;;;;;;5022465;28;20866;-66
2024/04/03 10:38:22;;;;;;;7.50;6.13;;;9.50;99.90;;;;;;5023280;28;20467;-66
2024/04/03 10:40:49;;;;;;;6.93;6.27;;;9.50;99.90;;;;;;5023978;28;20992;-66
2024/04/03 10:43:15;;;;;;;8.00;7.20;;;9.50;99.90;;;;;;5021766;28;20490;-66
2024/04/03 10:45:48;;;;;;;6.73;5.90;;;9.50;99.90;;;;;;5023704;28;20979;-66
2024/04/03 10:48:16;;;;;;;6.73;6.00;;;9.60;99.90;;;;;;5018925;28;20480;-66
2024/04/03 10:50:44;;;;;;;7.17;6.23;;;9.60;99.90;;;;;;5018266;28;20495;-66
2024/04/03 10:53:10;;;;;;;7.83;7.03;;;9.60;99.90;;;;;;5022837;28;20491;-66
2024/04/03 10:55:38;;;;;;;7.37;6.00;;;9.60;99.90;;;;;;5023952;28;21090;-66
2024/04/03 10:58:05;;;;;;;6.67;6.00;;;9.60;99.90;;;;;;5024289;28;20541;-66
2024/04/03 11:00:33;;;;;;;7.97;7.17;;;9.60;99.90;;;;;;5020965;28;20484;-66
2024/04/03 11:03:02;;;;;;;6.47;5.77;;;9.60;99.90;;;;;;5020961;28;20961;-66
2024/04/03 11:05:31;;;;;;;7.73;6.80;;;9.60;99.90;;;;;;5019587;28;20472;-66
2024/04/03 11:07:57;;;;;;;7.93;6.60;;;9.70;99.90;;;;;;5017586;28;20533;-66
2024/04/03 11:10:26;;;;;;;7.90;5.93;;;9.70;99.90;;;;;;5023079;28;20537;-65
2024/04/03 11:13:02;;;;;;;8.37;7.33;;;9.70;99.90;;;;;;5020865;28;20546;-66
2024/04/03 11:15:29;;;;;;;7.70;6.30;;;9.80;99.90;;;;;;5005599;28;20950;-65
2024/04/03 11:17:56;;;;;;;7.97;6.87;;;9.90;99.90;;;;;;5022916;28;20491;-66
2024/04/03 11:20:25;;;;;;;9.40;7.10;;;9.90;99.90;;;;;;5023026;28;20476;-66
2024/04/03 11:22:55;;;;;;;7.80;6.67;;;9.90;99.90;;;;;;5022361;28;20471;-66
2024/04/03 11:25:22;;;;;;;7.90;7.10;;;9.90;99.90;;;;;;5020673;28;20475;-66
2024/04/03 11:27:48;;;;;;;8.00;7.20;;;10.00;99.90;;;;;;5019474;28;20468;-66
2024/04/03 11:30:16;;;;;;;7.40;6.60;;;10.00;99.90;;;;;;5023615;28;20483;-66
2024/04/03 11:32:42;;;;;;;8.40;7.40;;;10.10;99.90;;;;;;5014591;28;20471;-66
2024/04/03 11:35:09;;;;;;;8.03;7.23;;;10.10;99.90;;;;;;5013401;28;20487;-66
2024/04/03 11:37:35;;;;;;;8.07;7.03;;;10.10;99.90;;;;;;5020378;28;20929;-65
2024/04/03 11:40:05;;;;;;;8.10;7.30;;;10.20;99.90;;;;;;5020596;28;20970;-65
2024/04/03 11:42:31;;;;;;;7.93;7.13;;;10.20;99.90;;;;;;5024887;28;20469;-66
2024/04/03 11:44:58;;;;;;;8.30;6.90;;;10.20;99.90;;;;;;5021663;28;20528;-65
2024/04/03 11:47:24;;;;;;;8.30;7.40;;;10.20;99.90;;;;;;5016166;28;20479;-66
2024/04/03 11:49:51;;;;;;;9.10;7.37;;;10.20;99.90;;;;;;5014511;28;20484;-63
2024/04/03 11:52:18;;;;;;;9.43;7.30;;;10.20;99.90;;;;;;5017873;28;20865;-66
2024/04/03 11:54:45;;;;;;;7.80;7.00;;;10.20;99.90;;;;;;5021277;28;20479;-65
2024/04/03 11:57:13;;;;;;;7.93;6.63;;;10.20;99.90;;;;;;5019005;28;20506;-64
2024/04/03 11:59:41;;;;;;;7.40;6.60;;;10.20;99.90;;;;;;5024194;28;20494;-66
2024/04/03 12:02:07;;;;;;;9.03;7.53;;;10.20;99.90;;;;;;5016636;28;20965;-64
2024/04/03 12:04:34;;;;;;;7.33;6.67;;;10.20;99.90;;;;;;5015206;28;20558;-65
2024/04/03 12:07:01;;;;;;;8.10;7.10;;;10.10;99.90;;;;;;5024717;28;20949;-66
2024/04/03 12:09:28;;;;;;;8.30;6.30;;;10.10;99.90;;;;;;5018400;28;20499;-65
2024/04/03 12:11:55;;;;;;;9.40;6.57;;;10.10;99.90;;;;;;5021670;28;20529;-66
2024/04/03 12:14:23;;;;;;;9.10;6.67;;;10.20;99.90;;;;;;5019989;28;20483;-66
2024/04/03 12:16:52;;;;;;;6.97;6.27;;;10.20;99.90;;;;;;5022012;28;20561;-66
2024/04/03 12:19:29;;;;;;;8.73;7.33;;;10.10;99.90;;;;;;5019288;28;20545;-65
2024/04/03 12:21:55;;;;;;;7.40;6.70;;;10.20;99.90;;;;;;5022325;28;20483;-65
2024/04/03 12:24:22;;;;;;;7.30;6.53;;;10.20;99.90;;;;;;5018370;28;20973;-64
2024/04/03 12:26:49;;;;;;;7.87;7.07;;;10.20;99.90;;;;;;5016241;28;21032;-66
2024/04/03 12:29:17;;;;;;;8.10;6.50;;;10.20;99.90;;;;;;5020218;28;20479;-66
2024/04/03 12:31:45;;;;;;;8.40;7.00;;;10.30;99.90;;;;;;5021998;28;20541;-66
2024/04/03 12:34:12;;;;;;;10.30;7.40;;;10.30;99.90;;;;;;5020584;28;20561;-65
2024/04/03 12:36:38;;;;;;;8.87;7.07;;;10.30;99.90;;;;;;5022745;28;20494;-66
2024/04/03 12:39:06;;;;;;;8.73;6.73;;;10.30;99.90;;;;;;5019203;28;20961;-66
2024/04/03 12:41:34;;;;;;;7.97;7.17;;;10.30;99.90;;;;;;5019290;28;20552;-66
2024/04/03 12:44:02;;;;;;;6.73;6.03;;;10.30;99.90;;;;;;5021539;28;20490;-65
2024/04/03 12:46:28;;;;;;;7.27;6.50;;;10.30;99.90;;;;;;5018726;28;20468;-66
2024/04/03 12:48:57;;;;;;;7.03;6.33;;;10.40;99.90;;;;;;5022747;28;20984;-65
2024/04/03 12:51:23;;;;;;;7.43;6.53;;;10.40;99.90;;;;;;5020390;28;20487;-66
2024/04/03 12:53:50;;;;;;;8.00;7.20;;;10.40;99.90;;;;;;5018229;28;20495;-66
2024/04/03 12:56:16;;;;;;;7.63;6.60;;;10.40;99.90;;;;;;5022167;28;20472;-66
2024/04/03 12:58:43;;;;;;;9.60;7.57;;;10.50;99.90;;;;;;5016445;28;20550;-66
2024/04/03 13:01:09;;;;;;;7.40;6.30;;;10.40;99.90;;;;;;5019571;28;20491;-66